Time;durP1;ratioP1;P1;durP2;ratioP2;P2;SDS_P1;SDS_P2;PMS_P1;PMS_P2;Temp;Humidity;BMP_temperature;BMP_pressure;BME280_temperature;BME280_humidity;BME280_pressure;Samples;Min_cycle;Max_cycle;Signal;HPM_P1;HPM_P2
2022/05/27 00:02:03;;;;;;;21.17;8.57;;;13.20;97.60;;;;;;5104366;28;20032;-74
2022/05/27 00:04:29;;;;;;;16.58;8.90;;;13.20;97.60;;;;;;5101521;28;20115;-74
2022/05/27 00:06:54;;;;;;;14.95;9.32;;;13.20;97.60;;;;;;5101153;27;20044;-75
2022/05/27 00:09:23;;;;;;;19.27;9.43;;;13.20;97.60;;;;;;5109024;28;20024;-74
2022/05/27 00:11:49;;;;;;;15.43;8.98;;;13.20;97.60;;;;;;5108484;28;20259;-74
2022/05/27 00:14:14;;;;;;;17.23;9.13;;;13.30;97.70;;;;;;5105066;28;20038;-74
2022/05/27 00:16:40;;;;;;;18.98;9.88;;;13.20;97.60;;;;;;5108166;28;20032;-74
2022/05/27 00:19:05;;;;;;;16.70;10.18;;;13.30;97.60;;;;;;5108406;28;20039;-74
2022/05/27 00:21:31;;;;;;;16.92;8.48;;;13.30;97.60;;;;;;5102249;28;20090;-74
2022/05/27 00:23:56;;;;;;;19.15;9.60;;;13.30;97.50;;;;;;5100263;28;20470;-74
2022/05/27 00:26:22;;;;;;;15.82;9.60;;;13.30;97.50;;;;;;5102985;28;20044;-74
2022/05/27 00:28:47;;;;;;;19.25;9.70;;;13.30;97.50;;;;;;5100234;28;20032;-74
2022/05/27 00:31:13;;;;;;;18.02;9.82;;;13.30;97.50;;;;;;5102078;28;20080;-75
2022/05/27 00:33:39;;;;;;;20.65;10.40;;;13.30;97.50;;;;;;5104006;28;20070;-74
2022/05/27 00:36:10;;;;;;;19.92;10.25;;;13.30;97.60;;;;;;5108181;28;20514;-75
2022/05/27 00:38:39;;;;;;;22.15;10.60;;;13.30;97.60;;;;;;5106182;28;20114;-75
2022/05/27 00:41:05;;;;;;;17.88;9.57;;;13.40;97.60;;;;;;5106719;28;20115;-75
2022/05/27 00:43:31;;;;;;;21.50;10.75;;;13.30;97.60;;;;;;5108488;28;20104;-75
2022/05/27 00:46:00;;;;;;;25.48;10.50;;;13.40;97.60;;;;;;5107271;28;20035;-75
2022/05/27 00:48:27;;;;;;;15.40;9.88;;;13.30;97.70;;;;;;5101387;28;20546;-75
2022/05/27 00:50:55;;;;;;;15.88;10.82;;;13.40;97.70;;;;;;5109892;28;20023;-75
2022/05/27 00:53:29;;;;;;;16.50;10.13;;;13.30;97.70;;;;;;5108822;28;20391;-75
2022/05/27 00:55:58;;;;;;;18.52;9.85;;;13.40;97.70;;;;;;5099184;28;20359;-75
2022/05/27 00:58:39;;;;;;;20.27;11.07;;;13.40;97.60;;;;;;5097549;28;20335;-74
2022/05/27 01:01:05;;;;;;;15.10;9.48;;;13.40;97.60;;;;;;5106441;28;20062;-75
2022/05/27 01:03:31;;;;;;;16.90;9.77;;;13.40;97.60;;;;;;5104263;27;20044;-75
2022/05/27 01:05:57;;;;;;;18.75;9.63;;;13.40;97.60;;;;;;5103665;28;20032;-75
2022/05/27 01:08:26;;;;;;;14.98;9.05;;;13.40;97.60;;;;;;5107592;28;20073;-74
2022/05/27 01:11:29;;;;;;;14.23;8.65;;;13.30;97.60;;;;;;5107684;28;20032;-74
2022/05/27 01:14:20;;;;;;;17.88;8.40;;;13.30;97.60;;;;;;5068790;28;20044;-75
2022/05/27 01:16:57;;;;;;;;;;;13.30;97.60;;;;;;5106799;28;20020;-74
2022/05/27 01:20:20;;;;;;;19.65;8.95;;;13.30;97.50;;;;;;5103317;28;19911;-75
2022/05/27 01:22:54;;;;;;;19.30;9.23;;;13.30;97.50;;;;;;5090373;28;20360;-75
2022/05/27 01:26:03;;;;;;;17.20;8.10;;;13.30;97.50;;;;;;5104815;28;20035;-74
2022/05/27 01:28:53;;;;;;;14.80;8.07;;;13.30;97.50;;;;;;5061197;28;20047;-75
2022/05/27 01:31:43;;;;;;;18.70;9.35;;;13.30;97.40;;;;;;5104455;28;20118;-75
2022/05/27 01:34:24;;;;;;;18.73;8.30;;;13.20;97.30;;;;;;5106115;27;20047;-75
2022/05/27 01:37:24;;;;;;;15.75;7.95;;;13.20;97.30;;;;;;5086427;28;20425;-74
2022/05/27 01:40:27;;;;;;;15.30;7.55;;;13.20;97.20;;;;;;5094713;28;20110;-74
2022/05/27 01:43:10;;;;;;;23.08;7.00;;;13.10;97.20;;;;;;5076673;28;20058;-75
2022/05/27 01:45:48;;;;;;;12.68;5.97;;;13.10;97.00;;;;;;5107019;28;20031;-75
2022/05/27 01:48:43;;;;;;;19.25;5.65;;;13.00;96.70;;;;;;5106143;28;20502;-75
2022/05/27 01:51:36;;;;;;;11.20;4.68;;;13.00;96.20;;;;;;5107057;28;20370;-75
2022/05/27 01:54:28;;;;;;;9.57;4.68;;;13.00;96.10;;;;;;5106618;28;20071;-75
2022/05/27 01:57:01;;;;;;;14.50;5.35;;;13.00;95.70;;;;;;5086038;28;20043;-74
2022/05/27 01:59:37;;;;;;;14.10;5.00;;;13.00;95.60;;;;;;5107060;27;20136;-74
2022/05/27 02:02:26;;;;;;;11.15;4.03;;;12.90;95.50;;;;;;5104479;28;20380;-75
2022/05/27 02:05:09;;;;;;;11.57;4.13;;;12.80;95.30;;;;;;5105105;28;20044;-76
2022/05/27 02:07:47;;;;;;;12.80;4.68;;;12.80;95.30;;;;;;5105514;28;20070;-73
2022/05/27 02:10:51;;;;;;;11.48;3.83;;;12.80;95.30;;;;;;5106817;28;20111;-73
2022/05/27 02:13:25;;;;;;;13.38;4.20;;;12.80;95.20;;;;;;5061085;28;20032;-74
2022/05/27 02:15:52;;;;;;;13.70;4.13;;;12.70;95.00;;;;;;5094684;28;20039;-73
2022/05/27 02:18:44;;;;;;;12.75;3.90;;;12.70;94.80;;;;;;5106342;28;20118;-74
2022/05/27 02:21:16;;;;;;;15.55;3.50;;;12.70;94.80;;;;;;5103127;28;20035;-74
2022/05/27 02:23:59;;;;;;;12.27;3.38;;;12.70;94.50;;;;;;5102801;28;20062;-74
2022/05/27 02:26:31;;;;;;;12.05;2.88;;;12.60;94.40;;;;;;5093248;28;20039;-74
2022/05/27 02:29:01;;;;;;;10.88;3.10;;;12.60;94.10;;;;;;5102915;28;20058;-73
2022/05/27 02:31:34;;;;;;;15.38;3.95;;;12.60;93.70;;;;;;5102300;28;20110;-75
2022/05/27 02:36:56;;;;;;;;;;;12.50;93.80;;;;;;5094514;28;20501;-75
2022/05/27 02:39:23;;;;;;;15.07;3.10;;;12.50;94.00;;;;;;5102818;28;19916;-75
2022/05/27 02:42:15;;;;;;;12.27;3.15;;;12.30;94.20;;;;;;5103984;28;20399;-75
2022/05/27 02:44:55;;;;;;;12.80;3.10;;;12.30;94.40;;;;;;5105946;28;20031;-74
2022/05/27 02:47:43;;;;;;;11.77;3.25;;;12.30;94.50;;;;;;5102258;28;20132;-74
2022/05/27 02:50:16;;;;;;;9.20;2.75;;;12.30;94.50;;;;;;5099002;28;20583;-75
2022/05/27 02:52:52;;;;;;;12.98;3.30;;;12.20;94.50;;;;;;5091713;28;20053;-74
2022/05/27 02:55:35;;;;;;;8.75;2.63;;;12.10;94.70;;;;;;5103402;28;20031;-75
2022/05/27 02:58:02;;;;;;;14.20;3.63;;;12.10;94.80;;;;;;5104952;28;20122;-75
2022/05/27 03:00:32;;;;;;;16.80;3.15;;;12.00;94.90;;;;;;5106597;28;20016;-75
2022/05/27 03:02:59;;;;;;;14.40;3.08;;;12.00;94.90;;;;;;5103967;28;20039;-74
2022/05/27 03:05:30;;;;;;;12.10;3.28;;;11.90;95.00;;;;;;5097023;28;20041;-75
2022/05/27 03:08:17;;;;;;;10.82;3.05;;;11.90;95.10;;;;;;5103318;28;20023;-74
2022/05/27 03:11:04;;;;;;;12.70;3.63;;;11.80;95.20;;;;;;5105570;28;20046;-75
2022/05/27 03:14:02;;;;;;;13.38;3.28;;;11.80;95.20;;;;;;5102463;28;20057;-75
2022/05/27 03:16:42;;;;;;;15.18;3.47;;;11.80;95.30;;;;;;5104664;28;20489;-75
2022/05/27 03:19:15;;;;;;;19.95;3.53;;;11.70;95.30;;;;;;5105218;28;20028;-74
2022/05/27 03:22:11;;;;;;;21.00;3.70;;;11.70;95.40;;;;;;5099862;28;20031;-74
2022/05/27 03:24:48;;;;;;;16.13;2.97;;;11.70;95.30;;;;;;5103707;28;20320;-74
2022/05/27 03:27:53;;;;;;;14.30;2.97;;;11.60;95.20;;;;;;5097941;28;20032;-75
2022/05/27 03:30:31;;;;;;;13.57;3.35;;;11.60;94.80;;;;;;5078897;28;20478;-74
2022/05/27 03:33:11;;;;;;;10.85;2.80;;;11.60;94.70;;;;;;5103316;28;20421;-74
2022/05/27 03:35:42;;;;;;;19.55;2.53;;;11.60;94.60;;;;;;5090939;28;20030;-74
2022/05/27 03:38:33;;;;;;;17.83;2.38;;;11.50;94.30;;;;;;5095823;28;20372;-74
2022/05/27 03:41:14;;;;;;;10.18;2.50;;;11.50;94.30;;;;;;5091856;28;20133;-75
2022/05/27 03:43:40;;;;;;;12.27;2.65;;;11.50;94.20;;;;;;5104101;28;20039;-75
2022/05/27 03:46:06;;;;;;;14.05;2.95;;;11.50;94.20;;;;;;5102296;28;20491;-74
2022/05/27 03:48:34;;;;;;;11.38;2.65;;;11.50;93.90;;;;;;5104935;28;20031;-74
2022/05/27 03:51:21;;;;;;;13.30;2.55;;;11.50;93.90;;;;;;5102276;27;20031;-74
2022/05/27 03:54:04;;;;;;;12.43;2.70;;;11.50;93.80;;;;;;5103829;28;20099;-74
2022/05/27 03:56:32;;;;;;;11.20;3.00;;;11.50;93.70;;;;;;5098017;28;20403;-74
2022/05/27 03:58:59;;;;;;;13.90;2.78;;;11.50;93.60;;;;;;5106037;28;20247;-74
2022/05/27 04:01:26;;;;;;;14.63;2.38;;;11.50;93.00;;;;;;5107819;28;20036;-74
2022/05/27 04:03:52;;;;;;;9.20;2.47;;;11.50;92.50;;;;;;5096936;27;20034;-74
2022/05/27 04:06:18;;;;;;;6.38;2.20;;;11.60;92.30;;;;;;5108567;28;20055;-74
2022/05/27 04:08:43;;;;;;;12.02;2.10;;;11.50;91.80;;;;;;5106224;28;20447;-74
2022/05/27 04:11:09;;;;;;;11.20;2.72;;;11.60;91.40;;;;;;5107913;28;20482;-74
2022/05/27 04:13:35;;;;;;;12.18;2.28;;;11.50;90.50;;;;;;5099042;28;20035;-74
2022/05/27 04:16:00;;;;;;;11.25;2.10;;;11.50;90.90;;;;;;5105703;28;20038;-74
2022/05/27 04:18:25;;;;;;;7.55;2.00;;;11.40;90.60;;;;;;5101974;28;20115;-70
2022/05/27 04:20:51;;;;;;;12.45;2.53;;;11.30;90.60;;;;;;5107249;28;20035;-71
2022/05/27 04:23:16;;;;;;;6.10;1.40;;;11.30;90.70;;;;;;5108504;28;20030;-71
2022/05/27 04:25:46;;;;;;;9.60;1.85;;;11.20;90.10;;;;;;5107597;28;20390;-71
2022/05/27 04:28:12;;;;;;;12.77;1.83;;;11.20;89.90;;;;;;5107022;28;20058;-72
2022/05/27 04:30:38;;;;;;;8.80;2.15;;;11.20;89.40;;;;;;5098503;28;20024;-71
2022/05/27 04:33:03;;;;;;;14.48;2.75;;;11.20;89.00;;;;;;5107558;27;20034;-71
2022/05/27 04:35:30;;;;;;;7.93;2.00;;;11.10;89.00;;;;;;5105583;28;20047;-72
2022/05/27 04:37:55;;;;;;;9.52;2.17;;;11.20;88.80;;;;;;5101397;28;20519;-72
2022/05/27 04:40:21;;;;;;;10.80;2.45;;;11.20;89.10;;;;;;5099628;28;20053;-72
2022/05/27 04:42:46;;;;;;;13.90;2.10;;;11.10;89.20;;;;;;5107168;28;20463;-71
2022/05/27 04:45:12;;;;;;;12.43;2.13;;;11.10;89.30;;;;;;5105369;28;20039;-71
2022/05/27 04:47:38;;;;;;;13.45;2.60;;;11.10;89.30;;;;;;5105427;28;20057;-72
2022/05/27 04:50:08;;;;;;;7.22;2.30;;;11.10;89.00;;;;;;5102683;28;20039;-72
2022/05/27 04:52:34;;;;;;;13.10;2.23;;;11.10;89.10;;;;;;5108453;28;20180;-71
2022/05/27 04:55:03;;;;;;;9.35;2.30;;;11.20;88.70;;;;;;5099941;28;20122;-74
2022/05/27 04:57:31;;;;;;;7.07;2.25;;;11.20;88.50;;;;;;5106225;28;20079;-72
2022/05/27 04:59:58;;;;;;;10.23;2.30;;;11.20;88.70;;;;;;5105986;28;20076;-72
2022/05/27 05:02:24;;;;;;;8.63;1.77;;;11.30;88.70;;;;;;5103295;28;20028;-71
2022/05/27 05:04:51;;;;;;;8.45;1.55;;;11.30;88.30;;;;;;5107691;28;20028;-71
2022/05/27 05:07:21;;;;;;;13.02;1.85;;;11.30;88.10;;;;;;5108002;28;20035;-72
2022/05/27 05:09:47;;;;;;;6.80;1.83;;;11.40;88.50;;;;;;5105651;28;20427;-72
2022/05/27 05:12:13;;;;;;;10.32;2.20;;;11.50;88.30;;;;;;5102556;28;20024;-72
2022/05/27 05:14:40;;;;;;;9.93;1.98;;;11.50;88.40;;;;;;5106499;28;20546;-72
2022/05/27 05:17:06;;;;;;;8.65;1.90;;;11.60;88.10;;;;;;5094298;28;20028;-72
2022/05/27 05:19:32;;;;;;;11.35;2.13;;;11.60;87.40;;;;;;5104729;28;20323;-72
2022/05/27 05:21:57;;;;;;;8.38;1.85;;;11.70;87.90;;;;;;5106143;28;20438;-72
2022/05/27 05:24:23;;;;;;;12.90;2.33;;;11.70;86.70;;;;;;5094948;28;20047;-71
2022/05/27 05:26:49;;;;;;;11.73;2.50;;;11.80;86.60;;;;;;5104320;28;20438;-73
2022/05/27 05:29:15;;;;;;;12.05;1.83;;;12.00;86.40;;;;;;5104242;28;20432;-74
2022/05/27 05:31:41;;;;;;;7.55;1.75;;;11.90;85.80;;;;;;5103591;28;20161;-73
2022/05/27 05:34:06;;;;;;;8.85;2.03;;;12.10;85.80;;;;;;5103749;27;20127;-73
2022/05/27 05:36:34;;;;;;;6.70;1.75;;;12.10;85.80;;;;;;5087222;28;20032;-73
2022/05/27 05:39:01;;;;;;;6.72;1.58;;;12.40;86.40;;;;;;5101253;28;20434;-73
2022/05/27 05:41:29;;;;;;;9.73;2.17;;;12.50;85.30;;;;;;5107147;28;20031;-74
2022/05/27 05:43:55;;;;;;;8.27;1.98;;;12.50;85.70;;;;;;5100283;27;20039;-74
2022/05/27 05:46:21;;;;;;;11.75;2.08;;;12.70;86.40;;;;;;5104870;28;20076;-73
2022/05/27 05:48:47;;;;;;;8.82;1.92;;;12.60;84.70;;;;;;5106617;28;20421;-74
2022/05/27 05:51:12;;;;;;;10.18;2.20;;;12.60;84.60;;;;;;5106859;28;20109;-74
2022/05/27 05:53:38;;;;;;;8.80;2.15;;;12.60;84.50;;;;;;5103439;28;20040;-74
2022/05/27 05:56:04;;;;;;;8.27;1.73;;;12.60;83.90;;;;;;5105843;28;20027;-74
2022/05/27 05:58:29;;;;;;;10.77;1.63;;;12.70;82.40;;;;;;5103492;28;20653;-73
2022/05/27 06:00:55;;;;;;;7.38;1.35;;;12.80;82.40;;;;;;5106475;28;20039;-74
2022/05/27 06:03:20;;;;;;;10.10;2.00;;;12.70;80.90;;;;;;5100951;28;20652;-73
2022/05/27 06:05:47;;;;;;;6.80;2.00;;;12.70;80.40;;;;;;5105120;28;20040;-73
2022/05/27 06:08:14;;;;;;;9.73;1.98;;;12.90;78.70;;;;;;5106725;28;20102;-73
2022/05/27 06:10:41;;;;;;;9.25;1.38;;;12.80;77.30;;;;;;5101394;28;20497;-73
2022/05/27 06:13:07;;;;;;;5.57;1.42;;;12.60;76.40;;;;;;5106509;28;20023;-74
2022/05/27 06:15:32;;;;;;;9.70;1.67;;;12.60;76.30;;;;;;5104650;28;20102;-74
2022/05/27 06:17:59;;;;;;;5.60;1.55;;;12.60;76.20;;;;;;5105855;28;20584;-73
2022/05/27 06:20:26;;;;;;;6.90;1.25;;;12.70;75.10;;;;;;5102269;28;20024;-74
2022/05/27 06:22:51;;;;;;;6.68;1.33;;;12.80;74.80;;;;;;5105435;28;20039;-74
2022/05/27 06:25:17;;;;;;;9.48;2.15;;;12.90;75.40;;;;;;5104440;28;20383;-71
2022/05/27 06:27:42;;;;;;;4.93;1.40;;;13.00;74.40;;;;;;5098693;28;20040;-71
2022/05/27 06:35:37;;;;;;;7.43;1.73;;;13.00;74.90;;;;;;5088447;28;20089;-71
2022/05/27 06:38:03;;;;;;;6.28;1.73;;;13.00;73.70;;;;;;5100537;28;20028;-71
2022/05/27 06:40:30;;;;;;;9.98;1.52;;;13.00;73.90;;;;;;5105277;28;20417;-71
2022/05/27 06:42:56;;;;;;;8.75;1.90;;;13.10;73.80;;;;;;5106380;28;20105;-71
2022/05/27 06:45:22;;;;;;;6.60;1.98;;;13.10;74.00;;;;;;5103292;28;20036;-71
2022/05/27 06:47:47;;;;;;;10.10;1.63;;;13.10;74.20;;;;;;5103349;28;20097;-72
2022/05/27 06:50:14;;;;;;;7.88;1.80;;;13.20;70.50;;;;;;5093653;28;20035;-71
2022/05/27 06:52:42;;;;;;;5.20;1.45;;;13.30;69.70;;;;;;5099427;28;20032;-71
2022/05/27 06:55:14;;;;;;;5.05;1.50;;;13.40;70.40;;;;;;5103066;28;20041;-71
2022/05/27 06:57:40;;;;;;;5.13;1.30;;;13.60;70.80;;;;;;5103770;28;20032;-72
2022/05/27 07:00:08;;;;;;;7.93;1.70;;;13.50;70.70;;;;;;5105900;28;20026;-72
2022/05/27 07:02:34;;;;;;;7.68;1.42;;;13.50;70.40;;;;;;5100807;28;20031;-71
2022/05/27 07:05:00;;;;;;;8.10;1.77;;;13.60;69.60;;;;;;5104338;28;20034;-72
2022/05/27 07:07:29;;;;;;;9.32;1.77;;;13.50;68.00;;;;;;5102827;28;20042;-71
2022/05/27 07:09:54;;;;;;;6.68;1.55;;;13.80;66.60;;;;;;5096497;28;20028;-71
2022/05/27 07:12:20;;;;;;;9.10;1.67;;;14.10;65.90;;;;;;5105857;28;20035;-71
2022/05/27 07:14:46;;;;;;;7.72;1.17;;;14.00;64.90;;;;;;5098873;28;20413;-71
2022/05/27 07:17:11;;;;;;;8.02;1.48;;;14.10;66.10;;;;;;5105609;28;20032;-71
2022/05/27 07:19:39;;;;;;;7.03;1.88;;;13.70;65.90;;;;;;5096450;28;20066;-71
2022/05/27 07:22:09;;;;;;;6.82;1.15;;;13.90;65.20;;;;;;5102488;28;20293;-73
2022/05/27 07:24:35;;;;;;;12.07;1.80;;;14.00;65.60;;;;;;5103045;28;20046;-71
2022/05/27 07:27:01;;;;;;;5.50;1.42;;;14.40;66.80;;;;;;5099778;28;20380;-72
2022/05/27 07:29:26;;;;;;;7.50;1.65;;;14.70;66.50;;;;;;5103807;28;20081;-71
2022/05/27 07:31:52;;;;;;;4.43;1.38;;;14.60;66.10;;;;;;5094967;28;20088;-71
2022/05/27 07:34:17;;;;;;;4.07;1.30;;;14.40;62.10;;;;;;5109531;27;20061;-71
2022/05/27 07:36:43;;;;;;;8.75;1.52;;;14.40;60.60;;;;;;5097664;28;20027;-71
2022/05/27 07:39:08;;;;;;;10.60;1.52;;;14.50;57.60;;;;;;5109298;28;20035;-71
2022/05/27 07:41:35;;;;;;;9.07;1.50;;;14.60;59.60;;;;;;5108268;28;20079;-71
2022/05/27 07:44:01;;;;;;;5.28;1.70;;;14.30;58.60;;;;;;5101282;28;20036;-72
2022/05/27 07:46:28;;;;;;;7.53;1.60;;;14.60;59.60;;;;;;5106785;28;20039;-71
2022/05/27 07:48:55;;;;;;;3.63;0.98;;;14.60;56.30;;;;;;5101288;28;20112;-71
2022/05/27 07:51:21;;;;;;;6.03;1.33;;;14.60;58.60;;;;;;5109506;28;20106;-71
2022/05/27 07:53:46;;;;;;;7.47;1.60;;;14.40;58.20;;;;;;5106176;28;20538;-72
2022/05/27 07:56:12;;;;;;;4.90;1.33;;;14.70;59.00;;;;;;5105599;28;20059;-72
2022/05/27 07:58:38;;;;;;;7.40;1.52;;;14.30;59.30;;;;;;5109359;28;20366;-71
2022/05/27 08:01:04;;;;;;;6.22;1.73;;;14.60;59.40;;;;;;5096849;28;20031;-71
2022/05/27 08:03:30;;;;;;;6.25;1.15;;;15.00;57.10;;;;;;5106870;28;20027;-73
2022/05/27 08:05:58;;;;;;;6.75;1.52;;;14.70;58.00;;;;;;5108908;28;20035;-72
2022/05/27 08:08:23;;;;;;;6.03;1.45;;;14.60;59.80;;;;;;5107972;28;20028;-72
2022/05/27 08:10:49;;;;;;;7.82;1.50;;;14.50;61.40;;;;;;5102116;28;20281;-72
2022/05/27 08:13:15;;;;;;;6.30;1.85;;;14.10;59.90;;;;;;5109050;28;20107;-71
2022/05/27 08:15:41;;;;;;;7.53;1.55;;;14.60;60.10;;;;;;5102151;28;20639;-72
2022/05/27 08:18:07;;;;;;;5.43;1.58;;;14.80;57.20;;;;;;5099175;28;20335;-74
2022/05/27 08:20:35;;;;;;;7.50;1.77;;;14.90;55.70;;;;;;5108404;28;20032;-72
2022/05/27 08:23:01;;;;;;;5.72;1.15;;;15.00;55.60;;;;;;5106948;28;20036;-74
2022/05/27 08:25:28;;;;;;;6.63;1.85;;;15.30;54.70;;;;;;5108524;28;20044;-72
2022/05/27 08:27:54;;;;;;;6.72;1.58;;;15.00;56.60;;;;;;5095513;28;20028;-72
2022/05/27 08:30:27;;;;;;;7.32;1.67;;;15.20;55.40;;;;;;5094115;28;20508;-73
2022/05/27 08:32:52;;;;;;;8.25;1.92;;;15.10;55.60;;;;;;5101083;27;20436;-73
2022/05/27 08:38:07;;;;;;;5.93;1.67;;;15.60;54.00;;;;;;5094229;28;20407;-73
2022/05/27 08:41:03;;;;;;;12.13;2.27;;;15.40;53.90;;;;;;5107489;28;20031;-73
2022/05/27 08:43:32;;;;;;;7.07;2.38;;;14.90;54.50;;;;;;5103672;28;20310;-72
2022/05/27 08:46:19;;;;;;;7.93;1.92;;;14.60;56.20;;;;;;5101397;28;20379;-72
2022/05/27 08:48:49;;;;;;;6.47;1.88;;;14.20;57.70;;;;;;5107244;28;20032;-72
2022/05/27 08:51:37;;;;;;;7.00;1.77;;;14.40;56.90;;;;;;5105389;28;20030;-72
2022/05/27 08:54:09;;;;;;;10.80;1.67;;;14.60;56.50;;;;;;5106664;28;20386;-72
2022/05/27 08:59:37;;;;;;;7.55;1.77;;;15.80;53.40;;;;;;5106864;28;20038;-73
2022/05/27 09:02:33;;;;;;;9.45;1.80;;;16.00;52.00;;;;;;5104490;28;20024;-72
2022/05/27 09:05:18;;;;;;;7.13;1.80;;;15.60;52.60;;;;;;5106931;28;20039;-73
2022/05/27 09:08:02;;;;;;;12.27;2.05;;;15.20;55.30;;;;;;5107472;28;20023;-73
2022/05/27 09:10:56;;;;;;;5.95;1.63;;;15.00;55.00;;;;;;5102540;28;20126;-72
2022/05/27 09:13:43;;;;;;;5.50;1.48;;;14.80;56.10;;;;;;5096613;28;20038;-72
2022/05/27 09:16:33;;;;;;;10.00;2.00;;;15.40;55.10;;;;;;5107853;28;20114;-72
2022/05/27 09:19:23;;;;;;;11.30;2.13;;;15.40;56.60;;;;;;5102966;28;20032;-72
2022/05/27 09:22:29;;;;;;;5.80;1.60;;;15.10;56.90;;;;;;5107457;28;20425;-72
2022/05/27 09:25:13;;;;;;;6.38;1.90;;;15.00;55.80;;;;;;5106201;28;20506;-72
2022/05/27 09:28:03;;;;;;;6.05;1.60;;;15.00;55.70;;;;;;5093540;28;20123;-73
2022/05/27 09:30:33;;;;;;;5.03;1.35;;;15.00;53.00;;;;;;5106900;28;20118;-72
2022/05/27 09:33:06;;;;;;;8.75;1.98;;;15.40;52.90;;;;;;5105778;27;20053;-72
2022/05/27 09:35:41;;;;;;;6.65;1.90;;;16.00;52.60;;;;;;5100106;28;20058;-72
2022/05/27 09:38:09;;;;;;;7.97;1.67;;;15.80;49.60;;;;;;5107380;28;20047;-72
2022/05/27 09:40:46;;;;;;;5.63;1.40;;;16.10;49.70;;;;;;5105822;28;20094;-73
2022/05/27 09:43:36;;;;;;;6.28;1.80;;;16.00;51.00;;;;;;5096989;28;20044;-73
2022/05/27 09:46:04;;;;;;;5.10;1.40;;;16.30;51.00;;;;;;5105417;28;20024;-72
2022/05/27 09:48:31;;;;;;;6.65;1.40;;;16.70;48.60;;;;;;5106828;28;20032;-72
2022/05/27 09:51:00;;;;;;;5.82;1.67;;;16.70;47.20;;;;;;5097878;28;20028;-73
2022/05/27 09:53:43;;;;;;;9.07;1.70;;;16.80;48.00;;;;;;5092711;28;20024;-73
2022/05/27 09:56:11;;;;;;;5.80;1.85;;;17.00;48.00;;;;;;5104408;27;20038;-73
2022/05/27 09:58:45;;;;;;;5.95;1.48;;;16.50;47.90;;;;;;5105708;28;20036;-73
2022/05/27 10:01:23;;;;;;;4.60;1.23;;;15.80;48.80;;;;;;5106573;28;20071;-73
2022/05/27 10:04:01;;;;;;;14.13;1.98;;;15.90;49.20;;;;;;5104902;28;20335;-72
2022/05/27 10:06:29;;;;;;;12.15;1.33;;;16.30;47.90;;;;;;5094361;28;20117;-73
2022/05/27 10:08:59;;;;;;;7.32;1.27;;;16.80;49.50;;;;;;5100661;28;20035;-73
2022/05/27 10:11:30;;;;;;;5.70;1.38;;;16.60;47.80;;;;;;5102897;28;20032;-72
2022/05/27 10:14:28;;;;;;;6.95;1.52;;;16.30;48.00;;;;;;5106509;28;20099;-73
2022/05/27 10:17:10;;;;;;;4.93;1.27;;;16.20;50.40;;;;;;5095844;28;20531;-72
2022/05/27 10:19:37;;;;;;;6.15;1.60;;;16.00;51.70;;;;;;5094933;28;20019;-73
2022/05/27 10:22:19;;;;;;;6.70;1.75;;;16.10;51.60;;;;;;5104997;28;20042;-73
2022/05/27 10:24:54;;;;;;;9.73;1.67;;;16.30;51.10;;;;;;5105784;28;20028;-73
2022/05/27 10:27:22;;;;;;;6.57;1.80;;;15.90;51.80;;;;;;5083252;28;20054;-72
2022/05/27 10:29:50;;;;;;;6.03;1.67;;;16.10;52.60;;;;;;5103866;28;20529;-73
2022/05/27 10:32:39;;;;;;;4.88;1.35;;;15.50;53.50;;;;;;5093088;28;20024;-73
2022/05/27 10:35:08;;;;;;;8.43;2.15;;;15.40;54.10;;;;;;5106229;27;20116;-72
2022/05/27 10:37:59;;;;;;;10.48;2.30;;;14.90;58.10;;;;;;5104532;28;20474;-72
2022/05/27 10:40:41;;;;;;;6.22;1.33;;;14.00;63.80;;;;;;5104570;28;20047;-72
2022/05/27 10:43:33;;;;;;;8.88;1.50;;;14.50;64.20;;;;;;5101608;28;20043;-73
2022/05/27 10:46:05;;;;;;;7.72;1.35;;;15.00;63.50;;;;;;5105474;28;20113;-72
2022/05/27 10:48:39;;;;;;;11.52;1.80;;;15.70;59.20;;;;;;5105209;28;20038;-73
2022/05/27 10:51:29;;;;;;;4.43;1.40;;;16.00;56.20;;;;;;5099178;28;20050;-72
2022/05/27 10:54:13;;;;;;;4.20;1.23;;;16.50;54.30;;;;;;5094721;28;20031;-73
2022/05/27 11:03:25;;;;;;;6.53;1.37;;;15.10;61.90;;;;;;5101115;28;20042;-72
2022/05/27 11:06:11;;;;;;;9.02;1.73;;;14.20;67.00;;;;;;5104543;28;20347;-72
2022/05/27 11:08:55;;;;;;;5.57;1.95;;;13.80;69.90;;;;;;5100068;28;20100;-72
2022/05/27 11:11:41;;;;;;;9.40;2.00;;;13.90;70.70;;;;;;5102288;28;20028;-72
2022/05/27 11:17:24;;;;;;;7.95;1.70;;;14.70;69.50;;;;;;5098464;28;20089;-72
2022/05/27 11:20:24;;;;;;;11.77;1.50;;;15.40;65.50;;;;;;5103855;28;20038;-73
2022/05/27 11:23:05;;;;;;;8.77;1.83;;;16.20;62.80;;;;;;5092565;28;20445;-72
2022/05/27 11:25:55;;;;;;;8.75;1.52;;;15.60;60.60;;;;;;5104557;28;20355;-73
2022/05/27 11:29:04;;;;;;;7.95;1.73;;;15.80;60.10;;;;;;5103875;28;20281;-72
2022/05/27 11:32:07;;;;;;;5.53;1.38;;;16.50;59.30;;;;;;5103231;28;20028;-72
2022/05/27 11:35:01;;;;;;;8.27;1.77;;;16.30;57.70;;;;;;5098889;28;20085;-73
2022/05/27 11:37:44;;;;;;;6.38;1.75;;;16.40;59.90;;;;;;5100760;28;20071;-72
2022/05/27 11:40:15;;;;;;;8.02;1.90;;;15.20;66.80;;;;;;5105283;28;20050;-72
2022/05/27 11:43:07;;;;;;;9.77;2.08;;;15.10;73.90;;;;;;5094663;28;20119;-73
2022/05/27 11:45:33;;;;;;;7.53;1.80;;;15.00;72.60;;;;;;5105054;28;20028;-72
2022/05/27 11:48:08;;;;;;;5.70;1.65;;;15.20;71.30;;;;;;5098969;28;20146;-73
2022/05/27 11:51:00;;;;;;;6.85;1.73;;;15.80;67.70;;;;;;5091696;28;20016;-73
2022/05/27 11:53:34;;;;;;;6.15;1.67;;;16.20;67.90;;;;;;5105702;28;20080;-73
2022/05/27 11:56:05;;;;;;;6.65;1.23;;;16.40;64.10;;;;;;5105551;28;20031;-73
2022/05/27 11:58:46;;;;;;;6.45;1.55;;;15.60;63.30;;;;;;5098322;28;20040;-72
2022/05/27 12:01:25;;;;;;;8.48;2.03;;;15.30;62.60;;;;;;5100421;28;20055;-72
2022/05/27 12:04:05;;;;;;;7.18;1.58;;;15.00;62.90;;;;;;5104675;28;20031;-71
2022/05/27 12:06:51;;;;;;;9.50;2.07;;;14.90;64.10;;;;;;5105264;28;20059;-74
2022/05/27 12:09:30;;;;;;;6.13;1.75;;;14.60;64.20;;;;;;5092285;28;20288;-72
2022/05/27 12:12:06;;;;;;;11.35;1.92;;;14.60;64.80;;;;;;5103205;28;20843;-71
2022/05/27 12:14:39;;;;;;;9.20;1.80;;;15.00;66.80;;;;;;5105288;28;20273;-72
2022/05/27 12:17:14;;;;;;;8.68;2.03;;;15.80;65.60;;;;;;5102596;28;20073;-72
2022/05/27 12:19:45;;;;;;;8.57;1.73;;;16.00;62.50;;;;;;5098132;28;20035;-72
2022/05/27 12:22:20;;;;;;;7.07;1.63;;;15.80;61.70;;;;;;5107221;28;20035;-71
2022/05/27 12:24:49;;;;;;;7.85;1.98;;;15.00;62.20;;;;;;5105207;28;20394;-72
2022/05/27 12:27:18;;;;;;;8.68;1.63;;;14.00;71.20;;;;;;5107563;28;20669;-72
2022/05/27 12:29:49;;;;;;;10.25;1.92;;;11.80;85.40;;;;;;5107901;28;20023;-72
2022/05/27 12:32:17;;;;;;;6.32;1.45;;;11.30;86.90;;;;;;5104070;28;20038;-74
2022/05/27 12:34:50;;;;;;;4.97;1.25;;;11.20;88.00;;;;;;5111615;27;20115;-75
2022/05/27 12:37:20;;;;;;;5.10;1.23;;;11.70;88.80;;;;;;5108900;28;20088;-74
2022/05/27 12:39:49;;;;;;;6.40;1.00;;;11.90;86.60;;;;;;5108316;28;20024;-74
2022/05/27 12:42:24;;;;;;;6.47;1.20;;;11.80;84.80;;;;;;5106057;28;20113;-74
2022/05/27 12:44:50;;;;;;;4.95;1.27;;;11.60;84.90;;;;;;5108459;28;20360;-74
2022/05/27 12:47:30;;;;;;;8.45;1.27;;;11.60;85.20;;;;;;5096414;28;20032;-74
2022/05/27 12:50:03;;;;;;;10.50;1.90;;;12.20;86.10;;;;;;5107470;28;20370;-73
2022/05/27 12:52:29;;;;;;;4.28;1.08;;;13.30;83.80;;;;;;5108359;28;20115;-75
2022/05/27 12:54:54;;;;;;;9.73;1.58;;;14.10;81.60;;;;;;5107997;28;20106;-75
2022/05/27 13:03:33;;;;;;;5.72;1.35;;;15.00;77.70;;;;;;5108372;28;20034;-74
2022/05/27 13:06:12;;;;;;;6.80;1.60;;;15.00;76.60;;;;;;5105186;28;20035;-74
2022/05/27 13:09:00;;;;;;;6.40;1.52;;;14.40;78.20;;;;;;5102308;28;20038;-74
2022/05/27 13:11:31;;;;;;;8.43;1.77;;;14.10;75.90;;;;;;5104525;28;20225;-74
2022/05/27 13:14:03;;;;;;;7.70;2.42;;;13.90;76.10;;;;;;5099393;28;20035;-74
2022/05/27 13:16:48;;;;;;;7.88;1.75;;;14.10;76.30;;;;;;5104715;28;20549;-74
2022/05/27 13:19:33;;;;;;;10.98;2.40;;;14.00;75.90;;;;;;5107706;28;20473;-74
2022/05/27 13:22:03;;;;;;;7.53;2.22;;;14.10;77.10;;;;;;5108195;28;20027;-73
2022/05/27 13:24:34;;;;;;;8.45;2.03;;;14.10;79.50;;;;;;5095609;28;20504;-74
2022/05/27 13:27:32;;;;;;;7.07;1.38;;;14.20;78.50;;;;;;5105003;28;20104;-73
2022/05/27 13:30:12;;;;;;;7.30;1.60;;;14.90;71.70;;;;;;5097439;28;20050;-75
2022/05/27 13:33:02;;;;;;;5.60;1.67;;;15.90;70.40;;;;;;5087984;28;20024;-74
2022/05/27 13:35:36;;;;;;;6.63;1.48;;;15.60;64.20;;;;;;5103802;28;20142;-74
2022/05/27 13:38:04;;;;;;;7.80;1.85;;;15.50;65.90;;;;;;5107130;28;20027;-73
2022/05/27 13:40:32;;;;;;;8.25;1.50;;;15.90;62.20;;;;;;5105802;28;20028;-74
2022/05/27 13:43:06;;;;;;;6.00;1.20;;;16.00;62.40;;;;;;5106334;28;20066;-74
2022/05/27 13:45:41;;;;;;;4.38;0.85;;;15.70;62.70;;;;;;5106522;28;20051;-73
2022/05/27 13:48:13;;;;;;;3.13;0.88;;;15.40;60.70;;;;;;5105642;28;20458;-73